sensor_id;sensor_type;location;lat;lon;timestamp;pressure;altitude;pressure_sealevel;temperature;humidity
26839;BME280;40088;51.214;6.786;2023-03-26T00:01:46;100502.06;;;17.92;53.90
26839;BME280;40088;51.214;6.786;2023-03-26T00:11:49;100505.66;;;17.92;53.93
26839;BME280;40088;51.214;6.786;2023-03-26T00:21:49;100500.38;;;17.91;53.96
26839;BME280;40088;51.214;6.786;2023-03-26T00:31:50;100485.94;;;17.89;54.07
26839;BME280;40088;51.214;6.786;2023-03-26T00:41:50;100484.66;;;17.91;54.10
26839;BME280;40088;51.214;6.786;2023-03-26T00:51:53;100475.78;;;17.89;53.95
26839;BME280;40088;51.214;6.786;2023-03-26T01:01:53;100470.25;;;17.89;53.99
26839;BME280;40088;51.214;6.786;2023-03-26T01:11:54;100452.66;;;17.90;53.94
26839;BME280;40088;51.214;6.786;2023-03-26T01:21:55;100437.19;;;17.89;53.88
26839;BME280;40088;51.214;6.786;2023-03-26T01:32:09;100419.78;;;17.89;53.92
26839;BME280;40088;51.214;6.786;2023-03-26T01:42:20;100412.56;;;17.88;53.92
26839;BME280;40088;51.214;6.786;2023-03-26T01:52:25;100392.41;;;17.87;53.91
26839;BME280;40088;51.214;6.786;2023-03-26T02:02:30;100385.00;;;17.88;53.87
26839;BME280;40088;51.214;6.786;2023-03-26T02:12:33;100375.69;;;17.89;53.82
26839;BME280;40088;51.214;6.786;2023-03-26T02:22:37;100360.19;;;17.88;53.89
26839;BME280;40088;51.214;6.786;2023-03-26T02:32:45;100339.19;;;17.87;53.97
26839;BME280;40088;51.214;6.786;2023-03-26T02:42:47;100322.66;;;17.87;53.72
26839;BME280;40088;51.214;6.786;2023-03-26T02:52:47;100297.84;;;17.87;53.80
26839;BME280;40088;51.214;6.786;2023-03-26T03:02:49;100288.75;;;17.86;53.72
26839;BME280;40088;51.214;6.786;2023-03-26T03:12:49;100273.72;;;17.89;53.50
26839;BME280;40088;51.214;6.786;2023-03-26T03:22:49;100259.06;;;17.88;53.69
26839;BME280;40088;51.214;6.786;2023-03-26T03:32:50;100239.97;;;17.87;53.98
26839;BME280;40088;51.214;6.786;2023-03-26T03:42:50;100236.38;;;17.86;53.72
26839;BME280;40088;51.214;6.786;2023-03-26T03:52:51;100224.28;;;17.87;53.75
26839;BME280;40088;51.214;6.786;2023-03-26T04:02:51;100215.16;;;17.87;53.64
26839;BME280;40088;51.214;6.786;2023-03-26T04:12:53;100203.94;;;17.88;53.66
26839;BME280;40088;51.214;6.786;2023-03-26T04:22:53;100190.38;;;17.87;53.68
26839;BME280;40088;51.214;6.786;2023-03-26T04:32:53;100172.75;;;17.88;53.51
26839;BME280;40088;51.214;6.786;2023-03-26T04:42:57;100156.88;;;17.90;53.62
26839;BME280;40088;51.214;6.786;2023-03-26T04:53:01;100140.75;;;17.87;53.75
26839;BME280;40088;51.214;6.786;2023-03-26T05:03:01;100125.91;;;17.88;53.72
26839;BME280;40088;51.214;6.786;2023-03-26T05:13:02;100127.81;;;17.87;53.88
26839;BME280;40088;51.214;6.786;2023-03-26T05:23:02;100114.88;;;17.88;53.74
26839;BME280;40088;51.214;6.786;2023-03-26T05:33:02;100103.84;;;17.88;53.86
26839;BME280;40088;51.214;6.786;2023-03-26T05:43:03;100087.31;;;17.88;54.00
26839;BME280;40088;51.214;6.786;2023-03-26T05:53:03;100068.03;;;17.88;53.78
26839;BME280;40088;51.214;6.786;2023-03-26T06:03:04;100055.97;;;17.89;53.80
26839;BME280;40088;51.214;6.786;2023-03-26T06:13:04;100037.69;;;17.88;53.94
26839;BME280;40088;51.214;6.786;2023-03-26T06:23:05;100027.56;;;17.88;53.89
26839;BME280;40088;51.214;6.786;2023-03-26T06:33:05;100013.78;;;17.88;53.95
26839;BME280;40088;51.214;6.786;2023-03-26T06:43:06;99999.13;;;17.88;54.00
26839;BME280;40088;51.214;6.786;2023-03-26T06:53:06;99980.47;;;17.90;53.96
26839;BME280;40088;51.214;6.786;2023-03-26T07:03:06;99979.81;;;17.88;53.93
26839;BME280;40088;51.214;6.786;2023-03-26T07:13:07;99966.03;;;17.88;54.02
26839;BME280;40088;51.214;6.786;2023-03-26T07:23:09;99972.19;;;17.90;53.94
26839;BME280;40088;51.214;6.786;2023-03-26T07:33:23;99954.81;;;17.89;54.08
26839;BME280;40088;51.214;6.786;2023-03-26T07:53:31;99930.84;;;17.90;54.10
26839;BME280;40088;51.214;6.786;2023-03-26T08:23:59;99914.56;;;17.88;54.25
26839;BME280;40088;51.214;6.786;2023-03-26T08:34:04;99912.63;;;17.89;54.16
26839;BME280;40088;51.214;6.786;2023-03-26T08:44:30;99906.28;;;17.88;54.27
26839;BME280;40088;51.214;6.786;2023-03-26T08:54:46;99909.88;;;17.89;54.27
26839;BME280;40088;51.214;6.786;2023-03-26T09:15:42;99906.66;;;17.92;54.30
26839;BME280;40088;51.214;6.786;2023-03-26T09:26:17;99893.94;;;17.91;54.38
26839;BME280;40088;51.214;6.786;2023-03-26T10:39:43;99838.81;;;17.91;54.26
26839;BME280;40088;51.214;6.786;2023-03-26T10:49:55;99824.22;;;17.90;54.34
26839;BME280;40088;51.214;6.786;2023-03-26T11:00:22;99813.19;;;17.90;54.22
26839;BME280;40088;51.214;6.786;2023-03-26T11:10:39;99815.09;;;17.90;54.23
26839;BME280;40088;51.214;6.786;2023-03-26T11:20:49;99809.59;;;17.90;54.32
26839;BME280;40088;51.214;6.786;2023-03-26T11:41:18;99802.16;;;17.90;54.31
26839;BME280;40088;51.214;6.786;2023-03-26T11:51:31;99796.41;;;17.92;54.18
26839;BME280;40088;51.214;6.786;2023-03-26T12:01:49;99801.91;;;17.92;54.24
26839;BME280;40088;51.214;6.786;2023-03-26T12:11:53;99798.56;;;17.90;54.23
26839;BME280;40088;51.214;6.786;2023-03-26T12:21:55;99798.31;;;17.91;54.17
26839;BME280;40088;51.214;6.786;2023-03-26T12:32:03;99800.84;;;17.93;54.20
26839;BME280;40088;51.214;6.786;2023-03-26T12:42:23;99806.34;;;17.93;54.08
26839;BME280;40088;51.214;6.786;2023-03-26T12:52:43;99806.59;;;17.91;54.32
26839;BME280;40088;51.214;6.786;2023-03-26T13:02:52;99811.03;;;17.92;54.09
26839;BME280;40088;51.214;6.786;2023-03-26T13:13:04;99816.53;;;17.92;54.22
26839;BME280;40088;51.214;6.786;2023-03-26T13:44:08;99826.72;;;17.92;54.25
26839;BME280;40088;51.214;6.786;2023-03-26T13:54:27;99835.22;;;17.90;54.21
26839;BME280;40088;51.214;6.786;2023-03-26T14:04:33;99835.22;;;17.90;54.30
26839;BME280;40088;51.214;6.786;2023-03-26T14:25:24;99846.03;;;17.92;54.18
26839;BME280;40088;51.214;6.786;2023-03-26T14:35:35;99853.44;;;17.91;54.30
26839;BME280;40088;51.214;6.786;2023-03-26T14:56:13;99877.19;;;17.92;54.31
26839;BME280;40088;51.214;6.786;2023-03-26T15:16:44;99898.16;;;17.93;54.07
26839;BME280;40088;51.214;6.786;2023-03-26T15:58:14;99968.97;;;17.93;53.89
26839;BME280;40088;51.214;6.786;2023-03-26T16:18:52;99995.94;;;17.91;53.95
26839;BME280;40088;51.214;6.786;2023-03-26T16:29:05;100019.91;;;17.90;54.17
26839;BME280;40088;51.214;6.786;2023-03-26T16:39:42;100035.13;;;17.93;53.97
26839;BME280;40088;51.214;6.786;2023-03-26T16:49:53;100062.69;;;17.93;54.11
26839;BME280;40088;51.214;6.786;2023-03-26T17:10:26;100106.81;;;17.93;54.11
26839;BME280;40088;51.214;6.786;2023-03-26T17:21:08;100131.59;;;17.93;54.09
26839;BME280;40088;51.214;6.786;2023-03-26T17:41:49;100191.41;;;17.92;54.12
26839;BME280;40088;51.214;6.786;2023-03-26T17:52:18;100207.09;;;17.92;54.09
26839;BME280;40088;51.214;6.786;2023-03-26T18:02:30;100223.41;;;17.93;54.00
26839;BME280;40088;51.214;6.786;2023-03-26T18:23:21;100269.66;;;17.91;54.00
26839;BME280;40088;51.214;6.786;2023-03-26T18:33:24;100301.88;;;17.91;53.99
26839;BME280;40088;51.214;6.786;2023-03-26T18:43:25;100329.22;;;17.92;53.89
26839;BME280;40088;51.214;6.786;2023-03-26T18:53:28;100352.97;;;17.93;53.73
26839;BME280;40088;51.214;6.786;2023-03-26T19:03:33;100359.13;;;17.76;54.02
26839;BME280;40088;51.214;6.786;2023-03-26T19:13:37;100383.31;;;17.87;53.66
26839;BME280;40088;51.214;6.786;2023-03-26T19:23:39;100410.88;;;17.87;53.50
26839;BME280;40088;51.214;6.786;2023-03-26T19:33:42;100422.75;;;17.87;53.29
26839;BME280;40088;51.214;6.786;2023-03-26T19:43:47;100440.13;;;17.88;53.13
26839;BME280;40088;51.214;6.786;2023-03-26T19:53:54;100478.53;;;17.89;53.17
26839;BME280;40088;51.214;6.786;2023-03-26T20:03:56;100487.66;;;17.90;53.15
26839;BME280;40088;51.214;6.786;2023-03-26T20:13:59;100503.34;;;17.89;52.99
26839;BME280;40088;51.214;6.786;2023-03-26T20:24:00;100530.06;;;17.89;52.95
26839;BME280;40088;51.214;6.786;2023-03-26T20:34:00;100541.94;;;17.89;52.86
26839;BME280;40088;51.214;6.786;2023-03-26T20:44:01;100555.72;;;17.89;52.69
26839;BME280;40088;51.214;6.786;2023-03-26T20:54:04;100572.25;;;17.89;52.56
26839;BME280;40088;51.214;6.786;2023-03-26T21:04:07;100600.00;;;17.88;52.51
26839;BME280;40088;51.214;6.786;2023-03-26T21:14:23;100623.78;;;17.89;52.62
26839;BME280;40088;51.214;6.786;2023-03-26T21:34:48;100684.22;;;17.90;52.13
26839;BME280;40088;51.214;6.786;2023-03-26T21:44:48;100702.00;;;17.88;52.19
26839;BME280;40088;51.214;6.786;2023-03-26T21:54:49;100717.50;;;17.89;51.96
26839;BME280;40088;51.214;6.786;2023-03-26T22:04:56;100745.91;;;17.89;51.87
26839;BME280;40088;51.214;6.786;2023-03-26T22:14:58;100766.28;;;17.88;51.81
26839;BME280;40088;51.214;6.786;2023-03-26T22:25:00;100804.88;;;17.88;51.61
26839;BME280;40088;51.214;6.786;2023-03-26T22:35:01;100822.25;;;17.89;51.44
26839;BME280;40088;51.214;6.786;2023-03-26T22:45:03;100840.88;;;17.87;51.51
26839;BME280;40088;51.214;6.786;2023-03-26T22:55:03;100858.47;;;17.86;51.29
26839;BME280;40088;51.214;6.786;2023-03-26T23:05:04;100872.25;;;17.86;51.15
26839;BME280;40088;51.214;6.786;2023-03-26T23:15:05;100904.69;;;17.84;51.15
26839;BME280;40088;51.214;6.786;2023-03-26T23:25:06;100916.38;;;17.86;51.05
26839;BME280;40088;51.214;6.786;2023-03-26T23:35:07;100945.00;;;17.85;50.95
26839;BME280;40088;51.214;6.786;2023-03-26T23:45:07;100968.09;;;17.84;50.83
26839;BME280;40088;51.214;6.786;2023-03-26T23:55:08;100983.78;;;17.83;50.88
